Time;durP1;ratioP1;P1;durP2;ratioP2;P2;SDS_P1;SDS_P2;PMS_P1;PMS_P2;Temp;Humidity;BMP_temperature;BMP_pressure;BME280_temperature;BME280_humidity;BME280_pressure;Samples;Min_cycle;Max_cycle;Signal;HPM_P1;HPM_P2
2024/02/17 00:00:22;;;;;;;9.45;5.50;;;;;;;1.95;76.92;95439.75;5012330;28;20022;-68
2024/02/17 00:02:47;;;;;;;8.38;5.57;;;;;;;2.12;77.00;95450.19;4989347;28;20038;-69
2024/02/17 00:05:13;;;;;;;8.15;5.30;;;;;;;1.93;77.40;95451.81;5012034;28;20038;-69
2024/02/17 00:07:38;;;;;;;7.53;5.82;;;;;;;2.01;77.29;95462.59;5011192;28;20038;-69
2024/02/17 00:10:04;;;;;;;8.75;5.55;;;;;;;1.92;77.78;95450.13;4995909;28;20042;-69
2024/02/17 00:12:29;;;;;;;8.32;5.40;;;;;;;1.99;77.44;95460.06;5003557;28;20026;-69
2024/02/17 00:14:55;;;;;;;6.80;5.03;;;;;;;2.17;76.70;95455.97;4992988;28;20042;-69
2024/02/17 00:17:20;;;;;;;8.52;4.90;;;;;;;2.04;77.38;95459.91;5004387;28;20034;-69
2024/02/17 00:19:46;;;;;;;7.97;5.03;;;;;;;2.10;77.01;95457.09;5013360;28;20029;-69
2024/02/17 00:22:16;;;;;;;8.63;5.15;;;;;;;2.07;77.17;95459.78;5008066;28;20096;-70
2024/02/17 00:24:41;;;;;;;8.13;4.88;;;;;;;1.84;77.41;95449.56;5013020;28;20041;-69
2024/02/17 00:27:07;;;;;;;8.05;5.35;;;;;;;1.96;77.78;95457.63;4995798;28;20037;-69
2024/02/17 00:29:33;;;;;;;8.38;5.65;;;;;;;1.95;78.20;95457.69;5011697;28;20034;-69
2024/02/17 00:31:59;;;;;;;7.95;5.57;;;;;;;1.87;77.73;95452.88;4991299;28;20542;-69
2024/02/17 00:34:24;;;;;;;7.38;5.20;;;;;;;1.67;77.81;95416.91;5010680;28;20034;-69
2024/02/17 00:36:50;;;;;;;8.98;5.47;;;;;;;1.88;77.71;95454.53;5031408;28;20042;-69
2024/02/17 00:39:15;;;;;;;8.25;5.70;;;;;;;1.92;77.75;95455.25;5030078;28;20041;-69
2024/02/17 00:41:42;;;;;;;7.43;5.38;;;;;;;1.95;78.10;95457.69;5030658;28;20033;-69
2024/02/17 00:44:07;;;;;;;6.95;5.22;;;;;;;1.93;77.64;95449.25;5031242;28;20412;-69
2024/02/17 00:46:33;;;;;;;7.88;5.03;;;;;;;1.88;78.12;95438.31;4997436;28;20029;-71
2024/02/17 00:48:58;;;;;;;9.05;5.20;;;;;;;2.00;77.79;95443.78;5013824;28;20029;-69
2024/02/17 00:51:24;;;;;;;12.02;6.13;;;;;;;1.88;77.69;95444.28;4995401;28;20032;-69
2024/02/17 00:53:49;;;;;;;7.00;5.10;;;;;;;1.93;77.79;95454.38;5011914;28;20026;-69
2024/02/17 00:56:15;;;;;;;9.43;5.40;;;;;;;1.91;77.37;95445.91;5031593;28;20041;-68
2024/02/17 00:58:40;;;;;;;7.13;5.00;;;;;;;1.56;78.03;95387.44;5030920;28;20492;-69
2024/02/17 01:01:06;;;;;;;8.10;5.20;;;;;;;1.84;77.88;95449.56;5014530;28;20033;-69
2024/02/17 01:03:31;;;;;;;7.57;5.05;;;;;;;1.52;78.39;95410.66;5027988;28;20444;-69
2024/02/17 01:05:57;;;;;;;8.82;5.13;;;;;;;1.93;77.84;95449.25;5032823;28;20067;-69
2024/02/17 01:08:22;;;;;;;9.93;5.40;;;;;;;1.89;77.46;95458.75;5029317;28;20037;-69
2024/02/17 01:10:48;;;;;;;8.05;5.10;;;;;;;1.81;77.71;95465.06;5032002;28;20041;-69
2024/02/17 01:13:14;;;;;;;8.00;5.10;;;;;;;1.78;77.89;95453.19;4995533;28;20022;-70
2024/02/17 01:15:40;;;;;;;8.18;5.07;;;;;;;1.80;77.55;95438.63;4997002;28;20033;-68
2024/02/17 01:18:05;;;;;;;8.15;5.40;;;;;;;1.57;77.97;95444.63;4994686;28;20045;-69
2024/02/17 01:20:31;;;;;;;7.50;4.95;;;;;;;1.64;77.79;95458.03;4997226;28;20037;-69
2024/02/17 01:22:56;;;;;;;11.43;7.10;;;;;;;1.73;78.37;95455.97;5028904;28;20030;-69
2024/02/17 01:25:23;;;;;;;7.78;5.50;;;;;;;1.63;78.22;95452.06;5011240;28;20023;-69
2024/02/17 01:27:49;;;;;;;9.10;5.07;;;;;;;1.51;78.47;95437.19;5014464;28;20039;-70
2024/02/17 01:30:14;;;;;;;8.43;5.13;;;;;;;1.58;78.92;95451.41;5013245;28;20077;-69
2024/02/17 01:32:41;;;;;;;8.35;5.28;;;;;;;1.54;78.75;95455.00;5010896;28;20060;-69
2024/02/17 01:35:07;;;;;;;8.63;5.10;;;;;;;1.59;78.65;95449.66;5000597;28;20054;-69
2024/02/17 01:37:33;;;;;;;8.45;5.60;;;;;;;1.58;76.91;95455.69;4996516;28;20041;-69
2024/02/17 01:39:59;;;;;;;9.27;6.22;;;;;;;1.57;76.70;95454.88;5031743;28;20037;-69
2024/02/17 01:42:24;;;;;;;11.75;8.50;;;;;;;1.53;76.87;95466.09;5008105;28;20472;-69
2024/02/17 01:44:51;;;;;;;8.60;5.18;;;;;;;1.29;78.24;95452.50;4996429;28;20037;-70
2024/02/17 01:47:16;;;;;;;8.70;5.85;;;;;;;1.37;78.24;95436.84;4996324;28;20021;-69
2024/02/17 01:49:42;;;;;;;7.63;5.10;;;;;;;1.36;78.56;95450.53;4997169;28;20048;-69
2024/02/17 01:52:07;;;;;;;11.75;8.23;;;;;;;1.10;77.88;95432.66;5008988;28;20041;-69
2024/02/17 01:54:33;;;;;;;13.10;9.98;;;;;;;1.31;77.65;95456.66;4996428;28;20219;-69
2024/02/17 01:56:58;;;;;;;10.60;6.22;;;;;;;1.27;78.82;95449.16;5013945;28;20013;-69
2024/02/17 01:59:24;;;;;;;13.20;10.13;;;;;;;1.12;78.48;95455.66;5011792;28;20029;-69
2024/02/17 02:01:50;;;;;;;10.52;7.45;;;;;;;1.14;78.29;95433.38;4993145;28;20029;-70
2024/02/17 02:04:15;;;;;;;8.15;5.40;;;;;;;1.00;77.60;95426.19;5010514;28;20049;-69
2024/02/17 02:06:40;;;;;;;8.10;5.45;;;;;;;1.16;78.31;95438.47;5010699;28;20026;-69
2024/02/17 02:09:06;;;;;;;7.53;4.75;;;;;;;0.96;78.07;95437.44;5010821;28;20030;-69
2024/02/17 02:11:32;;;;;;;6.75;4.95;;;;;;;1.09;78.21;95451.47;4989311;28;20037;-69
2024/02/17 02:14:19;;;;;;;9.20;5.70;;;;;;;0.81;78.52;95420.91;5008683;28;20021;-69
2024/02/17 02:16:44;;;;;;;6.97;5.15;;;;;;;1.04;78.62;95450.81;5021897;28;20124;-69
2024/02/17 02:19:10;;;;;;;7.80;5.15;;;;;;;1.09;77.79;95450.66;5008695;28;20022;-69
2024/02/17 02:21:39;;;;;;;8.68;5.30;;;;;;;1.00;78.74;95456.91;5009128;28;20086;-69
2024/02/17 02:24:05;;;;;;;8.20;5.47;;;;;;;1.04;77.56;95455.09;4980225;28;20036;-69
2024/02/17 02:26:30;;;;;;;7.65;5.60;;;;;;;1.09;78.05;95445.53;4998198;28;20029;-69
2024/02/17 02:28:57;;;;;;;8.13;5.88;;;;;;;0.85;78.29;95455.72;4991818;28;20037;-69
2024/02/17 02:31:22;;;;;;;7.63;4.82;;;;;;;0.86;78.82;95467.66;4978595;28;20417;-69
2024/02/17 02:33:48;;;;;;;8.10;5.20;;;;;;;1.00;78.40;95466.31;5024701;28;20029;-69
2024/02/17 02:36:13;;;;;;;8.75;5.68;;;;;;;0.89;78.29;95466.69;5030503;28;20515;-69
2024/02/17 02:38:39;;;;;;;7.40;5.30;;;;;;;0.88;78.28;95465.84;5010285;28;20030;-69
2024/02/17 02:41:04;;;;;;;11.77;4.97;;;;;;;0.82;79.18;95460.13;5013291;28;20105;-69
2024/02/17 02:43:31;;;;;;;7.57;5.68;;;;;;;0.77;79.20;95467.94;5007093;28;20547;-71
2024/02/17 02:45:57;;;;;;;7.20;5.18;;;;;;;0.73;79.09;95468.13;5011635;28;20029;-69
2024/02/17 02:48:22;;;;;;;8.00;4.85;;;;;;;0.73;78.71;95468.94;5012642;28;20114;-69
2024/02/17 02:50:47;;;;;;;7.20;5.07;;;;;;;0.62;78.89;95460.81;5011684;28;20407;-70
2024/02/17 02:53:13;;;;;;;9.65;5.88;;;;;;;0.75;78.63;95472.25;5025540;28;20034;-69
2024/02/17 02:55:38;;;;;;;10.07;6.00;;;;;;;0.76;78.59;95468.84;5028540;28;20037;-69
2024/02/17 02:58:04;;;;;;;8.50;5.40;;;;;;;0.43;78.52;95435.84;4995210;28;20032;-69
2024/02/17 03:00:29;;;;;;;7.50;5.38;;;;;;;0.54;79.02;95478.13;5029484;28;20442;-69
2024/02/17 03:02:55;;;;;;;9.75;5.75;;;;;;;0.29;79.20;95430.34;5008162;28;20034;-69
2024/02/17 03:05:21;;;;;;;8.65;5.40;;;;;;;0.61;79.19;95474.47;5011699;28;20033;-69
2024/02/17 03:07:46;;;;;;;9.18;5.40;;;;;;;0.61;79.44;95465.09;5029188;28;20079;-69
2024/02/17 03:10:12;;;;;;;6.57;4.90;;;;;;;0.60;79.98;95475.34;4992825;28;20034;-69
2024/02/17 03:12:37;;;;;;;8.40;5.40;;;;;;;0.60;79.75;95468.50;4983926;28;20424;-68
2024/02/17 03:15:03;;;;;;;8.45;5.78;;;;;;;0.58;80.55;95477.94;5029205;28;20048;-69
2024/02/17 03:17:29;;;;;;;6.95;4.93;;;;;;;0.49;80.33;95474.88;5011806;28;20029;-68
2024/02/17 03:19:54;;;;;;;8.85;5.60;;;;;;;0.57;80.91;95483.13;5029669;28;20037;-69
2024/02/17 03:22:20;;;;;;;7.05;5.43;;;;;;;0.63;80.78;95480.38;5023732;28;20064;-69
2024/02/17 03:24:46;;;;;;;7.85;5.38;;;;;;;0.63;80.25;95482.91;4991771;28;20040;-69
2024/02/17 03:27:11;;;;;;;9.65;5.95;;;;;;;0.57;81.40;95478.84;5000738;28;20103;-69
2024/02/17 03:29:37;;;;;;;9.98;6.15;;;;;;;0.74;81.46;95480.00;5028514;28;20037;-69
2024/02/17 03:32:03;;;;;;;9.25;6.25;;;;;;;0.70;80.60;95480.97;5023565;28;20044;-69
2024/02/17 03:34:29;;;;;;;9.23;6.13;;;;;;;0.59;81.15;95473.69;5029222;28;20483;-69
2024/02/17 03:36:54;;;;;;;8.95;6.00;;;;;;;0.77;80.94;95480.72;5011860;28;20049;-69
2024/02/17 03:39:20;;;;;;;10.48;5.97;;;;;;;0.77;81.15;95488.41;4995796;28;20038;-69
2024/02/17 03:41:46;;;;;;;9.23;5.45;;;;;;;0.83;81.12;95482.25;5025806;28;20036;-70
2024/02/17 03:44:12;;;;;;;8.05;5.18;;;;;;;0.93;80.67;95485.34;5010748;28;20472;-69
2024/02/17 03:46:37;;;;;;;10.82;5.85;;;;;;;0.81;80.52;95484.88;5028577;28;20048;-69
2024/02/17 03:49:02;;;;;;;10.02;5.82;;;;;;;0.91;81.08;95482.81;5012041;28;20034;-69
2024/02/17 03:51:28;;;;;;;8.82;5.82;;;;;;;0.82;80.78;95475.47;5009188;28;20427;-68
2024/02/17 03:53:53;;;;;;;14.00;8.27;;;;;;;0.82;81.06;95471.19;5026238;28;20017;-72
2024/02/17 03:56:19;;;;;;;8.52;5.43;;;;;;;0.94;79.77;95466.53;4995479;28;20026;-70
2024/02/17 03:58:44;;;;;;;7.82;5.70;;;;;;;0.82;80.61;95462.69;5027329;28;20029;-70
2024/02/17 04:01:09;;;;;;;8.48;5.43;;;;;;;0.91;80.61;95466.63;5030335;28;20041;-70
2024/02/17 04:03:35;;;;;;;8.93;5.72;;;;;;;1.00;80.32;95468.88;4986465;28;20033;-70
2024/02/17 04:06:02;;;;;;;8.88;5.35;;;;;;;0.87;80.34;95473.59;5009189;28;20042;-70
2024/02/17 04:08:27;;;;;;;7.60;5.40;;;;;;;0.93;80.86;95470.81;5025772;28;20416;-70
2024/02/17 04:10:54;;;;;;;12.00;5.93;;;;;;;0.85;80.76;95471.06;5015966;28;20037;-70
2024/02/17 04:13:19;;;;;;;8.65;5.47;;;;;;;0.86;80.56;95475.31;5028673;28;20515;-70
2024/02/17 04:15:45;;;;;;;9.95;6.53;;;;;;;0.94;79.76;95457.13;5014670;28;20096;-70
2024/02/17 04:18:10;;;;;;;11.20;7.85;;;;;;;1.05;79.59;95483.16;5031886;28;20034;-70
2024/02/17 04:20:39;;;;;;;10.20;6.60;;;;;;;0.94;79.75;95466.53;4994548;28;20041;-70
2024/02/17 04:23:05;;;;;;;12.10;7.55;;;;;;;1.12;79.32;95476.13;5006918;28;20525;-70
2024/02/17 04:25:30;;;;;;;13.43;9.68;;;;;;;0.95;79.96;95465.63;5013245;28;20037;-71
2024/02/17 04:27:56;;;;;;;14.27;10.23;;;;;;;0.87;79.42;95459.06;5015363;28;20403;-70
2024/02/17 04:30:21;;;;;;;14.68;10.18;;;;;;;0.98;79.03;95474.06;5031880;28;20046;-71
2024/02/17 04:32:46;;;;;;;17.05;11.60;;;;;;;0.75;78.75;95467.16;5010087;28;20017;-71
2024/02/17 04:35:12;;;;;;;17.20;10.95;;;;;;;0.63;79.73;95467.56;5013682;28;20046;-71
2024/02/17 04:37:37;;;;;;;18.95;13.82;;;;;;;0.58;79.24;95477.94;5031272;28;20476;-71
2024/02/17 04:40:04;;;;;;;16.00;10.80;;;;;;;0.67;78.67;95469.16;4995662;28;20034;-71
2024/02/17 04:42:29;;;;;;;19.02;12.98;;;;;;;0.66;78.41;95472.59;5017614;28;20028;-71
2024/02/17 04:44:55;;;;;;;22.60;13.40;;;;;;;0.53;78.59;95486.66;4994654;28;20026;-71
2024/02/17 04:47:20;;;;;;;24.42;14.57;;;;;;;0.68;77.53;95470.81;5004278;28;20033;-72
2024/02/17 04:49:46;;;;;;;18.55;11.55;;;;;;;0.78;76.75;95479.88;5031394;28;20033;-71
2024/02/17 04:52:11;;;;;;;20.60;12.55;;;;;;;0.60;76.25;95476.19;4994092;28;20033;-70
2024/02/17 04:54:36;;;;;;;19.42;11.50;;;;;;;0.54;77.26;95483.25;5011717;28;20025;-70
2024/02/17 04:57:02;;;;;;;15.30;10.32;;;;;;;0.33;77.48;95454.91;5014527;28;20079;-70
2024/02/17 04:59:28;;;;;;;15.60;9.48;;;;;;;0.60;76.60;95488.97;4997220;28;20065;-70
2024/02/17 05:01:53;;;;;;;13.43;8.75;;;;;;;0.53;76.77;95491.78;5010325;28;20040;-70
2024/02/17 05:04:18;;;;;;;13.00;7.63;;;;;;;0.42;76.88;95497.25;5030060;28;20041;-70
2024/02/17 05:06:47;;;;;;;15.02;9.15;;;;;;;0.07;77.01;95462.59;5029772;28;20026;-71
2024/02/17 05:09:13;;;;;;;16.20;9.95;;;;;;;0.04;77.89;95503.56;5013821;28;20514;-71
2024/02/17 05:11:40;;;;;;;16.08;10.23;;;;;;;-0.27;78.21;95490.00;5010629;28;20022;-72
2024/02/17 05:14:06;;;;;;;18.73;10.75;;;;;;;-0.27;79.38;95495.09;5029366;28;20029;-71
2024/02/17 05:16:31;;;;;;;16.77;9.80;;;;;;;-0.07;78.74;95504.72;5013032;28;20487;-71
2024/02/17 05:18:57;;;;;;;13.43;7.95;;;;;;;-0.05;77.98;95502.97;5031929;28;20412;-71
2024/02/17 05:21:22;;;;;;;14.90;7.82;;;;;;;-0.08;78.49;95508.16;5012181;28;20037;-70
2024/02/17 05:23:48;;;;;;;12.57;7.75;;;;;;;0.04;77.63;95513.78;5008005;28;20092;-70
2024/02/17 05:26:13;;;;;;;12.75;8.20;;;;;;;-0.30;78.32;95507.13;5032361;28;20032;-70
2024/02/17 05:28:39;;;;;;;12.88;7.75;;;;;;;-0.39;78.70;95505.69;4996521;28;20427;-71
2024/02/17 05:31:04;;;;;;;12.18;7.45;;;;;;;-0.55;80.97;95507.84;5014341;28;20060;-70
2024/02/17 05:33:30;;;;;;;10.93;7.45;;;;;;;-0.52;82.04;95505.19;5008210;28;20040;-70
2024/02/17 05:35:55;;;;;;;11.38;7.03;;;;;;;-0.40;82.54;95523.59;5000161;28;20104;-70
2024/02/17 05:38:20;;;;;;;11.15;6.85;;;;;;;-0.40;83.05;95519.31;4992171;28;20022;-70
2024/02/17 05:40:46;;;;;;;12.80;7.75;;;;;;;-0.26;83.07;95516.38;4973609;28;20508;-70
2024/02/17 05:43:11;;;;;;;9.93;6.28;;;;;;;-0.36;83.38;95499.63;4987822;28;20417;-70
2024/02/17 05:45:37;;;;;;;8.80;6.07;;;;;;;-0.22;83.57;95528.19;4953860;28;20043;-70
2024/02/17 05:48:02;;;;;;;9.85;6.57;;;;;;;-0.08;83.43;95536.28;4987240;28;20027;-70
2024/02/17 05:50:28;;;;;;;9.13;6.28;;;;;;;-0.04;82.90;95512.28;4990877;28;20038;-70
2024/02/17 05:52:53;;;;;;;41.55;17.85;;;;;;;0.14;81.44;95535.59;4986496;28;20030;-70
2024/02/17 05:55:18;;;;;;;39.33;18.98;;;;;;;0.03;81.89;95537.66;4991528;28;20034;-70
2024/02/17 05:57:44;;;;;;;63.35;29.33;;;;;;;0.05;81.83;95536.72;4990748;28;20390;-70
2024/02/17 06:00:10;;;;;;;45.55;23.75;;;;;;;0.24;82.07;95552.34;4992031;28;20038;-71
2024/02/17 06:02:35;;;;;;;32.08;17.92;;;;;;;0.12;82.23;95555.28;4984990;28;20034;-71
2024/02/17 06:05:01;;;;;;;18.70;11.30;;;;;;;0.12;82.64;95548.44;4990893;28;20038;-71
2024/02/17 06:07:26;;;;;;;15.15;10.30;;;;;;;0.01;83.02;95542.81;4955963;28;20488;-70
2024/02/17 06:09:53;;;;;;;13.18;8.15;;;;;;;0.02;82.85;95551.31;4990262;28;20525;-70
2024/02/17 06:12:19;;;;;;;11.05;6.97;;;;;;;-0.15;82.24;95532.22;4985835;28;20130;-70
2024/02/17 06:14:44;;;;;;;11.30;7.10;;;;;;;-0.13;82.36;95532.19;4990986;28;20039;-70
2024/02/17 06:17:10;;;;;;;10.18;6.80;;;;;;;0.03;82.32;95548.72;4974090;28;20042;-70
2024/02/17 06:22:19;;;;;;;13.35;6.68;;;;;;;-0.12;82.68;95542.34;4987201;28;20104;-70
2024/02/17 06:24:45;;;;;;;9.57;6.10;;;;;;;0.02;82.99;95544.47;4989077;28;20023;-70
2024/02/17 06:27:11;;;;;;;11.73;6.55;;;;;;;-0.05;82.49;95523.41;4990059;28;20027;-70
2024/02/17 06:29:36;;;;;;;10.82;6.63;;;;;;;0.15;82.77;95539.84;4990854;28;20105;-70
2024/02/17 06:32:02;;;;;;;11.65;7.18;;;;;;;0.11;82.36;95512.69;4984311;28;20038;-70
2024/02/17 06:34:27;;;;;;;10.90;6.85;;;;;;;0.24;82.17;95529.34;4990413;28;20034;-70
2024/02/17 06:36:53;;;;;;;14.30;8.32;;;;;;;0.57;82.03;95559.84;5007107;28;20053;-70
2024/02/17 06:39:18;;;;;;;55.05;29.42;;;;;;;0.42;82.70;95571.41;5009587;28;20420;-70
2024/02/17 06:41:44;;;;;;;44.00;25.58;;;;;;;0.33;82.18;95567.38;5005829;28;20037;-70
2024/02/17 06:44:09;;;;;;;39.22;22.77;;;;;;;0.58;82.08;95579.41;5008829;28;20036;-71
2024/02/17 06:46:34;;;;;;;29.40;17.35;;;;;;;0.64;81.43;95562.16;5010515;28;20026;-70
2024/02/17 06:49:00;;;;;;;30.77;17.75;;;;;;;0.68;81.10;95587.63;5009662;28;20045;-70
2024/02/17 06:51:26;;;;;;;27.17;16.58;;;;;;;0.53;81.67;95571.03;5009319;28;20033;-70
2024/02/17 06:53:52;;;;;;;27.70;14.82;;;;;;;0.71;81.65;95578.13;5003987;28;20092;-70
2024/02/17 06:56:17;;;;;;;22.15;11.48;;;;;;;1.18;80.27;95593.66;5009160;28;20038;-68
2024/02/17 06:58:43;;;;;;;16.95;9.52;;;;;;;1.82;78.00;95584.63;5008364;28;20022;-69
2024/02/17 07:01:09;;;;;;;13.27;8.00;;;;;;;3.27;73.24;95590.91;5009407;28;20428;-70
2024/02/17 07:03:34;;;;;;;15.65;10.80;;;;;;;4.58;68.85;95585.97;5004282;28;20076;-70
2024/02/17 07:05:59;;;;;;;15.60;10.00;;;;;;;5.49;64.65;95575.50;5010110;28;20040;-69
2024/02/17 07:08:26;;;;;;;14.88;9.18;;;;;;;6.06;61.52;95585.47;5009273;28;20038;-69
2024/02/17 07:10:51;;;;;;;15.77;8.65;;;;;;;6.64;59.46;95582.34;5007832;28;20197;-69
2024/02/17 07:13:17;;;;;;;13.82;9.25;;;;;;;7.30;57.37;95588.13;4988242;28;20034;-69
2024/02/17 07:15:45;;;;;;;15.30;9.88;;;;;;;8.13;55.78;95580.63;5009364;28;20034;-69
2024/02/17 07:18:11;;;;;;;16.23;11.70;;;;;;;8.24;55.01;95584.22;5009018;28;20038;-69
2024/02/17 07:20:36;;;;;;;20.00;13.48;;;;;;;8.01;55.50;95585.63;5008856;28;20116;-69
2024/02/17 07:23:02;;;;;;;15.00;10.18;;;;;;;7.70;55.99;95586.63;4987320;28;20036;-69
2024/02/17 07:25:27;;;;;;;16.38;9.75;;;;;;;7.65;55.88;95595.59;5010684;28;20409;-69
2024/02/17 07:27:57;;;;;;;25.08;14.82;;;;;;;7.84;54.84;95591.00;5007739;28;20223;-69
2024/02/17 07:30:23;;;;;;;23.73;14.63;;;;;;;8.44;53.81;95593.41;5009073;28;20113;-72
2024/02/17 07:32:49;;;;;;;21.45;13.95;;;;;;;9.14;51.12;95582.91;4987256;28;20038;-71
2024/02/17 07:35:14;;;;;;;27.20;17.77;;;;;;;8.95;52.48;95579.84;5009087;28;20054;-70
2024/02/17 07:37:39;;;;;;;24.30;16.77;;;;;;;8.73;52.53;95585.56;5009409;28;20029;-73
2024/02/17 07:40:08;;;;;;;26.30;18.55;;;;;;;9.52;51.38;95582.13;4991971;28;20030;-75
2024/02/17 07:42:33;;;;;;;27.02;17.85;;;;;;;10.71;47.95;95583.50;5004589;28;20025;-74
2024/02/17 07:44:59;;;;;;;28.05;19.17;;;;;;;10.62;48.15;95565.16;5011139;28;20044;-73
2024/02/17 07:47:24;;;;;;;26.58;15.90;;;;;;;11.79;45.87;95581.69;5013730;28;20030;-76
2024/02/17 07:49:51;;;;;;;25.70;15.57;;;;;;;12.46;43.32;95575.69;5012619;28;20401;-73
2024/02/17 07:52:16;;;;;;;24.15;15.75;;;;;;;12.91;41.76;95572.19;5009229;28;20124;-73
2024/02/17 07:54:42;;;;;;;38.95;23.73;;;;;;;13.66;39.97;95581.75;5012639;28;20034;-73
2024/02/17 07:57:08;;;;;;;31.48;20.10;;;;;;;14.52;38.26;95564.88;5012569;28;20018;-73
2024/02/17 07:59:33;;;;;;;35.38;20.75;;;;;;;15.37;36.81;95554.78;5013575;28;20091;-73
2024/02/17 08:01:59;;;;;;;36.80;21.77;;;;;;;15.38;36.10;95569.56;4990067;28;20037;-73
2024/02/17 08:04:24;;;;;;;54.58;30.10;;;;;;;13.43;39.59;95562.78;5012579;28;20034;-73
2024/02/17 08:06:52;;;;;;;45.20;26.85;;;;;;;15.55;36.32;95568.84;5011216;28;20520;-74
2024/02/17 08:09:17;;;;;;;42.13;23.98;;;;;;;16.52;34.48;95568.63;5012043;28;20506;-73
2024/02/17 08:11:49;;;;;;;46.30;25.30;;;;;;;14.68;37.69;95576.59;5011293;28;20034;-73
2024/02/17 08:14:15;;;;;;;48.47;26.65;;;;;;;16.33;35.14;95579.19;5010254;28;20038;-71
2024/02/17 08:16:41;;;;;;;52.45;23.63;;;;;;;14.89;36.47;95585.19;5012377;28;20551;-72
2024/02/17 08:19:07;;;;;;;37.70;24.42;;;;;;;13.33;40.31;95580.94;5010681;28;20026;-73
2024/02/17 08:21:32;;;;;;;30.90;20.13;;;;;;;11.02;45.59;95578.72;5010629;28;20022;-73
2024/02/17 08:23:58;;;;;;;26.35;19.40;;;;;;;11.22;46.68;95576.44;5008964;28;20476;-71
2024/02/17 08:26:24;;;;;;;28.45;19.55;;;;;;;9.69;50.63;95575.81;4979277;28;20037;-71
2024/02/17 08:28:49;;;;;;;25.48;16.27;;;;;;;9.37;52.31;95585.75;4975852;28;20030;-73
2024/02/17 08:31:14;;;;;;;28.45;17.45;;;;;;;8.72;54.60;95586.50;5012921;28;20041;-71
2024/02/17 08:33:40;;;;;;;24.25;14.93;;;;;;;9.32;53.15;95586.06;5008274;28;20491;-69
2024/02/17 08:36:06;;;;;;;28.63;15.93;;;;;;;8.56;54.72;95586.63;5010748;28;20058;-70
2024/02/17 08:38:31;;;;;;;28.98;17.17;;;;;;;8.25;56.35;95579.91;4992032;28;20034;-73
2024/02/17 08:40:57;;;;;;;26.23;15.63;;;;;;;7.65;58.21;95591.25;4988169;28;20037;-72
2024/02/17 08:43:23;;;;;;;23.13;15.15;;;;;;;7.35;59.66;95586.09;5007803;28;20518;-73
2024/02/17 08:45:48;;;;;;;25.10;15.25;;;;;;;7.91;58.40;95596.63;5009566;28;20033;-72
2024/02/17 08:48:14;;;;;;;32.38;17.52;;;;;;;7.70;58.84;95572.88;4995790;28;20037;-71
2024/02/17 08:50:40;;;;;;;27.25;16.40;;;;;;;7.71;58.61;95588.28;5004519;28;20037;-71
2024/02/17 08:53:05;;;;;;;25.80;15.95;;;;;;;7.25;60.20;95593.56;5005442;28;20026;-70
2024/02/17 08:55:31;;;;;;;26.88;16.75;;;;;;;7.03;60.93;95599.13;4977673;28;20040;-71
2024/02/17 08:57:56;;;;;;;26.38;16.42;;;;;;;7.69;58.51;95597.06;5012396;28;20080;-70
2024/02/17 09:00:24;;;;;;;27.90;15.98;;;;;;;7.37;59.89;95607.53;4999514;28;20034;-70
2024/02/17 09:02:49;;;;;;;25.10;16.10;;;;;;;7.16;60.38;95587.19;4992420;28;20441;-70
2024/02/17 09:05:15;;;;;;;26.35;15.52;;;;;;;7.21;60.80;95604.16;4992325;28;20092;-70
2024/02/17 09:07:40;;;;;;;25.92;15.80;;;;;;;7.00;61.10;95595.88;4991994;28;20030;-70
2024/02/17 09:10:08;;;;;;;25.58;15.48;;;;;;;7.35;60.07;95597.31;4991634;28;20488;-70
2024/02/17 09:12:34;;;;;;;27.27;14.93;;;;;;;6.85;61.91;95594.97;4993426;28;20112;-70
2024/02/17 09:14:59;;;;;;;27.13;14.93;;;;;;;7.00;61.98;95598.47;4993477;28;20469;-70
2024/02/17 09:17:24;;;;;;;26.38;15.35;;;;;;;7.31;60.81;95597.56;4975848;28;20036;-70
2024/02/17 09:19:50;;;;;;;26.95;15.05;;;;;;;7.19;61.17;95591.34;4992593;28;20396;-71
2024/02/17 09:22:16;;;;;;;26.02;13.82;;;;;;;6.99;61.91;95583.88;4991285;28;20444;-70
2024/02/17 09:24:42;;;;;;;26.38;14.13;;;;;;;7.02;62.13;95591.44;4991667;28;20042;-70
2024/02/17 09:27:08;;;;;;;34.33;14.45;;;;;;;6.98;61.90;95593.38;4973759;28;20399;-70
2024/02/17 09:29:34;;;;;;;22.85;13.82;;;;;;;7.23;60.68;95584.25;4989636;28;20109;-70
2024/02/17 09:31:59;;;;;;;19.63;13.00;;;;;;;7.23;61.19;95592.00;4991010;28;20037;-70
2024/02/17 09:34:26;;;;;;;25.23;13.35;;;;;;;7.55;59.95;95588.38;4990744;28;20035;-70
2024/02/17 09:36:51;;;;;;;20.48;12.85;;;;;;;7.56;59.66;95569.34;4989793;28;20046;-70
2024/02/17 09:39:17;;;;;;;22.20;13.45;;;;;;;7.84;59.19;95575.47;4991595;28;20073;-70
2024/02/17 09:41:42;;;;;;;19.80;12.25;;;;;;;8.15;58.19;95583.97;4975555;28;20057;-70
2024/02/17 09:44:09;;;;;;;25.08;13.88;;;;;;;7.89;58.68;95570.84;4992725;28;20085;-70
2024/02/17 09:46:35;;;;;;;26.58;13.85;;;;;;;7.60;59.45;95573.44;4992724;28;20104;-70
2024/02/17 09:49:01;;;;;;;23.13;14.82;;;;;;;7.94;59.24;95573.16;4959282;28;20034;-70
2024/02/17 09:51:26;;;;;;;27.98;13.55;;;;;;;7.69;59.46;95584.13;4991459;28;20545;-70
2024/02/17 09:53:55;;;;;;;21.00;12.88;;;;;;;7.67;60.02;95581.66;4975122;28;20033;-70
2024/02/17 09:56:21;;;;;;;22.02;12.68;;;;;;;7.93;58.66;95566.31;4992488;28;20577;-70
2024/02/17 09:58:46;;;;;;;21.15;11.55;;;;;;;8.31;57.04;95581.28;4992489;28;20031;-71
2024/02/17 10:01:12;;;;;;;17.75;11.60;;;;;;;8.50;55.96;95579.25;4975169;28;20041;-70
2024/02/17 10:03:40;;;;;;;16.13;10.05;;;;;;;8.59;55.65;95562.28;4975077;28;20038;-70
2024/02/17 10:06:15;;;;;;;19.92;11.55;;;;;;;8.32;56.09;95578.59;4991009;28;20304;-70
2024/02/17 10:08:42;;;;;;;14.60;10.30;;;;;;;8.79;55.28;95558.44;4991153;28;20547;-70
2024/02/17 10:11:10;;;;;;;24.40;13.13;;;;;;;8.42;56.90;95563.34;4975111;28;20114;-70
2024/02/17 10:13:37;;;;;;;22.10;13.88;;;;;;;8.55;56.86;95558.22;4991050;28;20026;-71
2024/02/17 10:16:07;;;;;;;19.13;12.43;;;;;;;8.42;57.14;95543.47;4991141;28;20031;-70
2024/02/17 10:18:32;;;;;;;20.63;13.63;;;;;;;8.92;54.89;95526.47;4992231;28;20034;-70
2024/02/17 10:20:58;;;;;;;18.65;11.45;;;;;;;9.22;54.67;95548.72;4992550;28;20041;-70
2024/02/17 10:23:23;;;;;;;18.40;12.50;;;;;;;9.38;53.88;95549.34;4974673;28;20096;-70
2024/02/17 10:25:49;;;;;;;20.65;11.27;;;;;;;9.47;53.43;95547.06;4991000;28;20039;-70
2024/02/17 10:28:14;;;;;;;23.73;11.68;;;;;;;9.20;53.88;95547.97;4992039;28;20038;-70
2024/02/17 10:30:39;;;;;;;19.23;13.45;;;;;;;8.92;54.77;95546.34;4992240;28;20460;-70
2024/02/17 10:33:13;;;;;;;19.20;11.80;;;;;;;9.04;54.81;95536.94;4974622;28;20034;-70
2024/02/17 10:35:39;;;;;;;21.15;12.88;;;;;;;8.82;54.84;95551.28;4990735;28;20556;-70
2024/02/17 10:38:05;;;;;;;20.90;11.82;;;;;;;9.07;54.93;95549.72;4990667;28;20080;-70
2024/02/17 10:40:31;;;;;;;23.42;12.00;;;;;;;9.42;53.07;95543.94;4958423;28;20042;-70
2024/02/17 10:42:56;;;;;;;19.20;12.85;;;;;;;8.99;54.17;95507.91;4974352;28;20100;-70
2024/02/17 10:45:22;;;;;;;21.02;11.15;;;;;;;9.38;52.90;95533.78;4990645;28;20034;-70
2024/02/17 10:47:47;;;;;;;16.77;10.27;;;;;;;9.59;51.36;95535.88;4991698;28;20034;-70
2024/02/17 10:50:14;;;;;;;13.45;9.20;;;;;;;9.39;51.67;95532.88;4974329;28;20034;-70
2024/02/17 10:52:50;;;;;;;17.90;9.88;;;;;;;9.29;51.71;95534.41;4974468;28;20493;-71
2024/02/17 10:55:18;;;;;;;12.80;9.25;;;;;;;9.58;50.79;95527.28;4975304;28;20420;-70
2024/02/17 10:57:57;;;;;;;15.95;10.05;;;;;;;9.78;51.54;95536.31;4974478;28;20042;-70
2024/02/17 11:00:23;;;;;;;16.02;9.40;;;;;;;10.05;49.82;95532.72;4990223;28;20054;-70
2024/02/17 11:02:50;;;;;;;14.57;9.27;;;;;;;9.90;48.69;95529.44;4990344;28;20042;-70
2024/02/17 11:05:19;;;;;;;12.82;8.90;;;;;;;9.93;48.60;95520.63;4990359;28;20054;-70
2024/02/17 11:07:44;;;;;;;11.80;8.27;;;;;;;9.81;48.96;95525.72;4974130;28;20026;-71
2024/02/17 11:10:11;;;;;;;14.18;7.95;;;;;;;10.13;48.56;95532.22;4957932;28;20085;-70
2024/02/17 11:12:36;;;;;;;13.40;9.27;;;;;;;10.00;48.77;95517.50;4991403;28;20101;-70
2024/02/17 11:15:11;;;;;;;11.93;7.85;;;;;;;10.40;46.78;95516.50;4990190;28;20509;-70
2024/02/17 11:17:53;;;;;;;13.35;9.00;;;;;;;10.55;46.04;95505.00;4991412;28;20024;-71
2024/02/17 11:20:18;;;;;;;15.82;8.95;;;;;;;10.60;46.82;95509.88;4979110;28;20038;-70
2024/02/17 11:22:47;;;;;;;14.40;9.32;;;;;;;10.63;47.57;95496.66;4978149;28;20032;-71
2024/02/17 11:25:12;;;;;;;16.15;10.52;;;;;;;10.55;47.87;95504.16;4994201;28;20041;-70
2024/02/17 11:27:42;;;;;;;13.93;9.75;;;;;;;10.65;47.11;95495.59;4977987;28;20030;-70